Terminal Aerodrome Forecast
Issued by NWS Wichita, KS

Home | Current Version | Previous Version | Text Only | Print | Product List | Glossary Off
Versions: 1 2 3 4 5 6 7 8 9 10 11 12 13 14 15 16 17 18 19 20 21 22 23 24 25 26

629
FTUS43 KICT 191553 AAC
TAFICT
TAF AMD
KICT 191553Z 1916/2012 34016G24KT P6SM OVC012
      TEMPO 1916/1920 OVC008
     FM192200 01013KT P6SM OVC015=

USA.gov is the U.S. government's official web portal to all federal, state and local government web resources and services.